Sagrada, Missouri
Current Conditions -  °F | °C
As of 10:55 AM on Saturday 22 Nov 2014 (Local Time) from KH21 Reporting Station
Overcast Overcast  
Wind Chill: 55°   Ceiling: 2200
Heat Index: 55°   Visibility: 10mi
Dew Point: 50°   Wind: 13mph
Humidity: 82%   Direction: 170°S
Pressure: 30.04"   Gusts: NA
Location:  38.1656°N, 93.1481°W
Report Text: KH21 221655Z AUTO 17011KT 10SM BKN022 BKN030 OVC036 13/10 A3004 RMK AO2 LTG DSNT E AND SW
Loading
Personal Weather Stations






























Interactive Weather Map New forecast layout! Learn more

10-Day Weather Forecast

Advertisements
Track Severe Weather on mobile